Time;durP1;ratioP1;P1;durP2;ratioP2;P2;SDS_P1;SDS_P2;PMS_P1;PMS_P2;Temp;Humidity;BMP_temperature;BMP_pressure;BME280_temperature;BME280_humidity;BME280_pressure;Samples;Min_cycle;Max_cycle;Signal;HPM_P1;HPM_P2
2023/12/07 00:01:35;;;;;;;13.73;13.33;;;22.00;46.70;;;;;;4992627;28;20451;-62
2023/12/07 00:04:02;;;;;;;13.70;13.20;;;22.00;46.90;;;;;;4991971;28;20485;-62
2023/12/07 00:06:28;;;;;;;13.83;13.43;;;22.00;46.90;;;;;;4992166;28;21017;-62
2023/12/07 00:08:55;;;;;;;13.87;13.37;;;22.00;46.70;;;;;;4992367;28;20969;-61
2023/12/07 00:11:24;;;;;;;14.17;13.60;;;22.00;46.60;;;;;;4992525;28;20594;-62
2023/12/07 00:13:51;;;;;;;13.80;13.30;;;21.90;46.60;;;;;;4992539;28;20482;-60
2023/12/07 00:16:18;;;;;;;14.17;13.77;;;21.90;46.60;;;;;;4991909;28;20454;-62
2023/12/07 00:18:45;;;;;;;14.50;14.00;;;21.90;46.60;;;;;;4992294;28;20482;-61
2023/12/07 00:21:12;;;;;;;13.53;13.13;;;21.90;46.50;;;;;;4992390;28;20479;-62
2023/12/07 00:23:39;;;;;;;13.90;13.43;;;21.90;46.60;;;;;;4992326;28;20969;-62
2023/12/07 00:26:06;;;;;;;13.63;13.23;;;21.90;46.60;;;;;;4992003;28;20490;-61
2023/12/07 00:28:34;;;;;;;14.53;14.13;;;21.90;46.60;;;;;;4992214;28;20474;-62
2023/12/07 00:31:01;;;;;;;14.33;13.90;;;21.90;46.70;;;;;;4992309;28;20478;-62
2023/12/07 00:33:28;;;;;;;14.00;13.50;;;21.90;46.70;;;;;;4992303;28;20458;-63
2023/12/07 00:35:55;;;;;;;13.70;13.30;;;21.80;46.50;;;;;;4991982;28;20490;-61
2023/12/07 00:38:22;;;;;;;13.03;12.53;;;21.80;46.40;;;;;;4992235;28;20467;-61
2023/12/07 00:40:49;;;;;;;12.93;12.53;;;21.80;46.50;;;;;;4992372;28;20491;-62
2023/12/07 00:43:16;;;;;;;12.90;12.50;;;21.80;46.50;;;;;;4992221;28;20973;-61
2023/12/07 00:45:45;;;;;;;13.10;12.60;;;21.80;46.40;;;;;;4991695;28;20465;-63
2023/12/07 00:48:11;;;;;;;12.70;12.30;;;21.80;46.50;;;;;;4992018;28;20482;-60
2023/12/07 00:50:38;;;;;;;12.70;12.30;;;21.80;46.60;;;;;;4992219;28;21165;-61
2023/12/07 00:53:05;;;;;;;13.80;13.30;;;21.80;46.60;;;;;;4992059;28;20478;-62
2023/12/07 00:55:31;;;;;;;12.83;12.43;;;21.70;46.70;;;;;;4991795;28;20974;-62
2023/12/07 00:58:00;;;;;;;13.43;12.93;;;21.70;46.50;;;;;;4991891;28;20473;-62
2023/12/07 01:00:27;;;;;;;14.20;13.70;;;21.70;46.60;;;;;;4992091;28;20215;-62
2023/12/07 01:02:55;;;;;;;12.80;12.40;;;21.70;46.50;;;;;;4991989;28;20822;-60
2023/12/07 01:05:22;;;;;;;13.37;12.70;;;21.70;46.30;;;;;;4991817;28;20819;-61
2023/12/07 01:07:49;;;;;;;12.80;12.40;;;21.70;46.30;;;;;;4991764;28;20514;-61
2023/12/07 01:10:16;;;;;;;12.90;12.50;;;21.70;46.40;;;;;;4992035;28;20475;-62
2023/12/07 01:12:42;;;;;;;12.40;12.10;;;21.70;46.20;;;;;;4992013;28;20450;-61
2023/12/07 01:15:10;;;;;;;12.27;11.97;;;21.70;46.40;;;;;;4992202;28;20466;-63
2023/12/07 01:17:37;;;;;;;12.80;12.40;;;21.70;46.50;;;;;;4995225;28;20446;-63
2023/12/07 01:20:11;;;;;;;15.30;14.70;;;21.70;46.60;;;;;;4995425;28;20458;-62
2023/12/07 01:22:39;;;;;;;15.43;14.83;;;21.70;46.50;;;;;;4995324;28;20447;-62
2023/12/07 01:25:07;;;;;;;12.60;12.20;;;21.70;46.50;;;;;;4995264;28;20989;-62
2023/12/07 01:27:34;;;;;;;12.60;12.20;;;21.60;46.30;;;;;;4995135;28;20924;-61
2023/12/07 01:30:01;;;;;;;13.10;12.60;;;21.70;46.40;;;;;;4995363;28;20868;-62
2023/12/07 01:32:28;;;;;;;13.17;12.67;;;21.70;46.30;;;;;;4994833;28;20485;-62
2023/12/07 01:34:54;;;;;;;12.70;12.30;;;21.60;46.20;;;;;;4994805;28;20508;-63
2023/12/07 01:37:23;;;;;;;12.10;11.70;;;21.60;46.20;;;;;;4994901;28;20474;-62
2023/12/07 01:39:50;;;;;;;12.97;12.57;;;21.60;46.20;;;;;;4995238;28;20443;-62
2023/12/07 01:42:17;;;;;;;12.43;12.03;;;21.70;46.20;;;;;;4994931;28;20694;-63
2023/12/07 01:44:44;;;;;;;12.00;11.60;;;21.60;46.30;;;;;;4994628;28;20486;-63
2023/12/07 01:47:11;;;;;;;12.27;11.97;;;21.60;46.40;;;;;;4994677;28;20482;-61
2023/12/07 01:49:39;;;;;;;12.20;11.90;;;21.60;46.20;;;;;;4995038;28;20868;-61
2023/12/07 01:52:07;;;;;;;13.13;12.73;;;21.60;46.20;;;;;;4994777;28;20486;-63
2023/12/07 01:54:36;;;;;;;11.80;11.40;;;21.60;46.20;;;;;;4994522;28;20506;-59
2023/12/07 01:57:03;;;;;;;12.00;11.60;;;21.60;46.10;;;;;;5047984;22;20888;-68
2023/12/07 01:59:30;;;;;;;12.57;12.17;;;21.60;46.10;;;;;;5005621;28;20958;-67
2023/12/07 02:01:57;;;;;;;11.67;11.37;;;21.60;46.20;;;;;;5005737;28;20480;-68
2023/12/07 02:04:24;;;;;;;12.80;12.40;;;21.60;46.00;;;;;;5004407;28;20446;-68
2023/12/07 02:06:53;;;;;;;13.37;12.97;;;21.60;46.20;;;;;;5002249;28;20501;-67
2023/12/07 02:09:20;;;;;;;12.47;11.97;;;21.60;46.40;;;;;;5002968;28;20475;-68
2023/12/07 02:11:48;;;;;;;12.60;12.20;;;21.60;46.30;;;;;;5005664;28;20470;-68
2023/12/07 02:14:16;;;;;;;13.33;12.90;;;21.60;46.40;;;;;;5005436;28;20477;-67
2023/12/07 02:16:49;;;;;;;12.63;12.33;;;21.60;46.20;;;;;;5002009;28;20529;-67
2023/12/07 02:19:36;;;;;;;13.13;12.73;;;21.60;46.20;;;;;;5002014;28;20829;-67
2023/12/07 02:22:10;;;;;;;12.93;12.53;;;21.60;46.20;;;;;;5005542;28;20438;-68
2023/12/07 02:24:39;;;;;;;13.53;13.03;;;21.50;46.20;;;;;;5010141;28;20476;-68
2023/12/07 02:27:07;;;;;;;13.13;12.73;;;21.60;46.00;;;;;;5004800;28;20524;-68
2023/12/07 02:29:34;;;;;;;13.70;13.30;;;21.60;46.00;;;;;;5002730;28;20975;-68
2023/12/07 02:32:01;;;;;;;13.20;12.80;;;21.50;46.00;;;;;;5001966;28;20946;-67
2023/12/07 02:34:28;;;;;;;13.60;13.17;;;21.60;46.10;;;;;;5011415;28;20481;-67
2023/12/07 02:36:58;;;;;;;13.50;13.10;;;21.60;46.20;;;;;;5005286;28;20498;-67
2023/12/07 02:39:25;;;;;;;13.70;13.10;;;21.60;46.20;;;;;;5003928;28;20484;-67
2023/12/07 02:41:53;;;;;;;12.87;12.47;;;21.60;46.20;;;;;;5001814;28;20931;-68
2023/12/07 02:44:22;;;;;;;12.80;12.40;;;21.60;46.10;;;;;;5010114;28;20458;-68
2023/12/07 02:46:49;;;;;;;12.83;12.53;;;21.50;46.00;;;;;;5005076;28;20496;-67
2023/12/07 02:49:16;;;;;;;12.70;12.20;;;21.60;46.10;;;;;;5004910;28;20446;-67
2023/12/07 02:51:43;;;;;;;12.67;12.37;;;21.60;46.10;;;;;;5005073;28;20489;-68
2023/12/07 02:54:10;;;;;;;12.53;12.20;;;21.50;45.90;;;;;;5005761;28;20489;-68
2023/12/07 02:56:37;;;;;;;13.00;12.60;;;21.50;46.70;;;;;;5004140;28;20513;-68
2023/12/07 02:59:04;;;;;;;12.20;11.90;;;21.50;46.10;;;;;;5004747;28;20524;-67
2023/12/07 03:01:32;;;;;;;12.50;12.07;;;21.50;46.20;;;;;;5004522;28;20462;-68
2023/12/07 03:03:59;;;;;;;12.80;12.40;;;21.50;46.20;;;;;;5007107;28;20509;-68
2023/12/07 03:06:25;;;;;;;12.57;12.17;;;21.50;46.20;;;;;;5002368;28;20558;-67
2023/12/07 03:08:52;;;;;;;12.53;12.23;;;21.50;46.20;;;;;;5004520;28;20557;-68
2023/12/07 03:11:19;;;;;;;13.07;12.67;;;21.50;46.10;;;;;;5004223;28;20474;-67
2023/12/07 03:13:46;;;;;;;14.10;13.60;;;21.50;46.10;;;;;;5008676;28;20481;-68
2023/12/07 03:16:13;;;;;;;12.03;11.70;;;21.50;46.20;;;;;;5001144;28;20502;-68
2023/12/07 03:18:41;;;;;;;12.97;12.57;;;21.50;46.00;;;;;;5004175;28;20472;-67
2023/12/07 03:21:08;;;;;;;13.13;12.73;;;21.50;46.20;;;;;;5004370;28;20483;-68
2023/12/07 03:23:35;;;;;;;12.60;12.27;;;21.50;46.20;;;;;;5009868;28;20481;-68
2023/12/07 03:26:02;;;;;;;13.67;13.20;;;21.50;46.20;;;;;;5000888;28;20497;-67
2023/12/07 03:28:28;;;;;;;12.83;12.43;;;21.50;46.20;;;;;;5002259;28;21084;-67
2023/12/07 03:30:55;;;;;;;13.17;12.80;;;21.50;46.20;;;;;;5004261;28;20868;-67
2023/12/07 03:33:22;;;;;;;13.07;12.63;;;21.50;46.10;;;;;;5004012;28;20880;-67
2023/12/07 03:35:50;;;;;;;12.83;12.43;;;21.50;46.10;;;;;;5004325;28;20513;-68
2023/12/07 03:38:17;;;;;;;12.33;12.03;;;21.50;46.00;;;;;;5003740;28;20500;-68
2023/12/07 03:40:47;;;;;;;13.87;13.40;;;21.50;45.90;;;;;;5008237;28;20471;-67
2023/12/07 03:43:14;;;;;;;13.47;12.97;;;21.50;46.00;;;;;;5008589;28;20525;-67
2023/12/07 03:45:41;;;;;;;12.90;12.50;;;21.50;46.10;;;;;;5003985;28;20474;-68
2023/12/07 03:48:08;;;;;;;12.87;12.47;;;21.50;46.20;;;;;;5003893;28;20502;-67
2023/12/07 03:50:35;;;;;;;13.20;12.80;;;21.50;46.20;;;;;;5001693;28;20470;-67
2023/12/07 03:53:03;;;;;;;14.03;13.43;;;21.50;46.20;;;;;;5006494;28;20479;-67
2023/12/07 03:55:30;;;;;;;12.60;12.30;;;21.50;46.10;;;;;;5002318;28;20821;-66
2023/12/07 03:57:57;;;;;;;12.83;12.37;;;21.50;46.00;;;;;;5000361;28;20499;-68
2023/12/07 04:00:24;;;;;;;12.60;12.20;;;21.50;46.00;;;;;;5001071;28;20482;-68
2023/12/07 04:02:50;;;;;;;14.13;13.67;;;21.50;46.20;;;;;;5011744;28;20478;-67
2023/12/07 04:05:17;;;;;;;13.90;13.50;;;21.50;46.00;;;;;;5004210;28;20474;-67
2023/12/07 04:07:44;;;;;;;14.40;13.90;;;21.50;46.00;;;;;;5000269;28;20554;-68
2023/12/07 04:10:13;;;;;;;13.90;13.40;;;21.50;46.30;;;;;;5000252;28;20475;-68
2023/12/07 04:12:40;;;;;;;14.67;14.27;;;21.50;46.30;;;;;;5010763;28;20434;-68
2023/12/07 04:15:08;;;;;;;15.20;14.70;;;21.50;46.30;;;;;;5005435;28;20486;-68
2023/12/07 04:17:35;;;;;;;13.27;12.87;;;21.50;46.30;;;;;;5002229;28;20502;-67
2023/12/07 04:20:02;;;;;;;13.40;12.90;;;21.50;46.40;;;;;;5003591;28;20485;-68
2023/12/07 04:22:29;;;;;;;14.77;14.13;;;21.50;46.30;;;;;;5003456;28;20442;-67
2023/12/07 04:24:56;;;;;;;13.27;12.87;;;21.50;46.20;;;;;;5003732;28;20442;-68
2023/12/07 04:27:24;;;;;;;14.00;13.60;;;21.60;46.30;;;;;;5002801;28;20512;-67
2023/12/07 04:29:51;;;;;;;13.20;12.80;;;21.60;46.30;;;;;;5000165;28;20486;-67
2023/12/07 04:32:18;;;;;;;14.07;13.57;;;21.60;46.20;;;;;;5007281;28;20534;-68
2023/12/07 04:34:45;;;;;;;14.23;13.80;;;21.60;46.20;;;;;;5003495;28;20478;-67
2023/12/07 04:37:12;;;;;;;13.70;13.30;;;21.50;46.40;;;;;;5003320;28;20537;-67
2023/12/07 04:39:38;;;;;;;14.17;13.73;;;21.60;46.70;;;;;;5002304;28;20477;-65
2023/12/07 04:42:06;;;;;;;14.53;14.13;;;21.60;47.10;;;;;;5010879;28;20473;-67
2023/12/07 04:44:34;;;;;;;15.63;14.93;;;21.60;47.20;;;;;;5003339;28;20478;-67
2023/12/07 04:47:01;;;;;;;14.60;14.10;;;21.60;47.10;;;;;;5003296;28;20490;-67
2023/12/07 04:49:28;;;;;;;15.60;15.00;;;21.60;47.00;;;;;;5002150;28;20506;-67
2023/12/07 04:51:55;;;;;;;15.10;14.40;;;21.60;47.00;;;;;;5008050;28;20474;-67
2023/12/07 04:54:22;;;;;;;15.27;14.67;;;21.60;47.10;;;;;;5006702;28;20505;-67
2023/12/07 04:56:49;;;;;;;14.60;14.10;;;21.60;47.00;;;;;;5006802;28;20485;-67
2023/12/07 04:59:16;;;;;;;14.50;14.00;;;21.60;47.00;;;;;;5007060;28;20469;-67
2023/12/07 05:01:44;;;;;;;15.47;14.97;;;21.70;47.10;;;;;;5012150;28;20478;-67
2023/12/07 05:04:11;;;;;;;15.60;15.10;;;21.60;47.10;;;;;;5003665;28;20533;-67
2023/12/07 05:06:38;;;;;;;15.33;14.83;;;21.70;47.20;;;;;;5005666;28;20502;-67
2023/12/07 05:09:05;;;;;;;17.13;16.43;;;21.70;47.20;;;;;;5006559;28;20505;-67
2023/12/07 05:11:32;;;;;;;14.60;14.13;;;21.70;47.30;;;;;;5013561;28;20480;-67
2023/12/07 05:13:58;;;;;;;15.37;14.80;;;21.70;47.00;;;;;;5003410;28;20550;-67
2023/12/07 05:16:25;;;;;;;15.40;14.90;;;21.70;47.20;;;;;;5003714;28;20509;-67
2023/12/07 05:18:53;;;;;;;16.00;15.50;;;21.70;47.30;;;;;;5006732;28;20433;-67
2023/12/07 05:21:21;;;;;;;15.73;15.23;;;21.70;47.30;;;;;;5014615;28;20889;-67
2023/12/07 05:23:48;;;;;;;16.33;15.77;;;21.70;47.30;;;;;;5003262;28;20461;-67
2023/12/07 05:26:15;;;;;;;16.30;15.70;;;21.80;47.30;;;;;;5003217;28;20462;-67
2023/12/07 05:28:42;;;;;;;16.53;15.93;;;21.70;47.30;;;;;;5005642;28;20617;-67
2023/12/07 05:31:09;;;;;;;16.33;15.73;;;21.80;47.40;;;;;;5014347;28;20937;-67
2023/12/07 05:33:36;;;;;;;16.67;16.07;;;21.80;47.30;;;;;;5004530;28;20533;-67
2023/12/07 05:36:04;;;;;;;16.30;15.70;;;21.80;47.30;;;;;;5010840;28;20969;-67
2023/12/07 05:38:31;;;;;;;16.10;15.60;;;21.80;47.40;;;;;;5005028;28;20481;-67
2023/12/07 05:40:58;;;;;;;16.23;15.73;;;21.80;47.40;;;;;;5005745;28;20471;-67
2023/12/07 05:43:25;;;;;;;18.43;17.60;;;21.80;47.30;;;;;;5003087;28;20475;-67
2023/12/07 05:45:52;;;;;;;15.80;15.30;;;21.80;47.40;;;;;;5006232;28;20521;-67
2023/12/07 05:48:19;;;;;;;16.70;16.10;;;21.80;47.60;;;;;;5006214;28;20509;-67
2023/12/07 05:50:46;;;;;;;17.87;17.07;;;21.80;48.20;;;;;;5005587;28;20468;-67
2023/12/07 05:53:14;;;;;;;16.67;15.77;;;21.80;48.60;;;;;;5002647;28;20971;-67
2023/12/07 05:55:41;;;;;;;18.00;17.20;;;21.80;48.70;;;;;;5004791;28;20485;-67
2023/12/07 05:58:08;;;;;;;23.20;19.60;;;21.80;48.90;;;;;;5011880;28;20473;-67
2023/12/07 06:00:35;;;;;;;21.30;20.00;;;21.90;50.20;;;;;;5013565;28;20474;-67
2023/12/07 06:03:02;;;;;;;20.50;19.00;;;21.90;51.30;;;;;;5004918;28;20446;-67
2023/12/07 06:05:29;;;;;;;20.33;18.60;;;21.90;50.50;;;;;;5005016;28;20516;-67
2023/12/07 06:07:56;;;;;;;20.73;19.43;;;21.90;50.50;;;;;;5002211;28;20494;-67
2023/12/07 06:10:25;;;;;;;20.03;18.93;;;21.90;50.40;;;;;;5002125;28;20478;-67
2023/12/07 06:12:52;;;;;;;19.23;17.87;;;21.90;50.10;;;;;;5002378;28;20929;-67
2023/12/07 06:15:19;;;;;;;19.00;18.00;;;21.90;50.00;;;;;;5002545;28;20447;-67
2023/12/07 06:17:47;;;;;;;19.30;18.30;;;22.00;49.80;;;;;;5005066;28;20485;-67
2023/12/07 06:20:13;;;;;;;19.50;18.23;;;22.00;49.70;;;;;;5005462;28;20533;-67
2023/12/07 06:22:40;;;;;;;18.60;17.40;;;21.90;49.50;;;;;;5003274;28;20874;-68
2023/12/07 06:25:08;;;;;;;18.30;17.50;;;22.00;49.40;;;;;;5001919;28;20443;-68
2023/12/07 06:27:37;;;;;;;21.53;20.33;;;22.00;49.30;;;;;;5003400;28;20473;-67
2023/12/07 06:30:05;;;;;;;18.60;17.57;;;22.00;49.20;;;;;;5008177;28;20553;-68
2023/12/07 06:32:32;;;;;;;18.83;17.93;;;22.00;49.10;;;;;;5002964;28;20443;-67
2023/12/07 06:34:59;;;;;;;18.70;17.70;;;22.00;48.90;;;;;;5005565;28;20956;-67
2023/12/07 06:37:26;;;;;;;19.40;18.17;;;22.00;48.80;;;;;;5004809;28;20489;-67
2023/12/07 06:39:53;;;;;;;18.73;17.93;;;22.00;48.80;;;;;;5001525;28;20482;-68
2023/12/07 06:42:20;;;;;;;18.63;17.73;;;22.00;48.70;;;;;;5001737;28;20485;-68
2023/12/07 06:44:49;;;;;;;18.90;18.10;;;22.00;48.60;;;;;;5004815;28;20864;-68
2023/12/07 06:47:16;;;;;;;18.90;18.10;;;22.00;48.60;;;;;;4998216;28;20470;-68
2023/12/07 06:49:43;;;;;;;19.50;18.50;;;22.10;48.50;;;;;;5003933;28;20479;-67
2023/12/07 06:52:11;;;;;;;17.67;16.87;;;22.10;48.50;;;;;;5004964;28;20473;-67
2023/12/07 06:54:38;;;;;;;17.47;16.50;;;22.10;48.40;;;;;;4996717;28;20447;-68
2023/12/07 06:57:06;;;;;;;16.77;15.97;;;22.10;48.30;;;;;;5004849;28;20469;-67
2023/12/07 06:59:33;;;;;;;16.90;16.20;;;22.10;48.30;;;;;;5003693;28;20478;-67
2023/12/07 07:02:02;;;;;;;17.77;17.00;;;22.10;48.20;;;;;;5001462;28;20482;-67
2023/12/07 07:04:30;;;;;;;18.20;17.47;;;22.10;48.20;;;;;;5001789;28;20943;-68
2023/12/07 07:06:57;;;;;;;17.93;17.13;;;22.10;48.10;;;;;;5004601;28;20815;-67
2023/12/07 07:09:24;;;;;;;18.40;17.77;;;22.10;48.00;;;;;;5004575;28;20474;-67
2023/12/07 07:11:52;;;;;;;17.23;16.57;;;22.10;48.00;;;;;;5004735;28;20446;-68
2023/12/07 07:14:19;;;;;;;19.37;18.57;;;22.10;48.50;;;;;;5004805;28;20446;-68
2023/12/07 07:16:46;;;;;;;18.17;17.20;;;22.10;48.00;;;;;;5001573;28;20502;-67
2023/12/07 07:19:16;;;;;;;18.20;17.60;;;22.20;47.90;;;;;;5001075;28;20474;-68
2023/12/07 07:21:43;;;;;;;18.30;17.40;;;22.20;48.20;;;;;;5003340;28;20447;-67
2023/12/07 07:24:10;;;;;;;18.20;17.60;;;22.20;47.90;;;;;;5004294;28;20454;-67
2023/12/07 07:26:38;;;;;;;17.13;16.63;;;22.20;47.80;;;;;;5002656;28;20984;-68
2023/12/07 07:29:06;;;;;;;18.17;17.47;;;22.20;47.80;;;;;;5000799;28;20483;-68
2023/12/07 07:31:33;;;;;;;18.00;17.40;;;22.20;47.70;;;;;;5001703;28;20526;-68
2023/12/07 07:34:00;;;;;;;18.67;17.97;;;22.20;47.70;;;;;;5004362;28;20473;-68
2023/12/07 07:36:28;;;;;;;18.30;17.60;;;22.20;47.60;;;;;;5004078;28;20462;-68
2023/12/07 07:38:55;;;;;;;18.23;17.53;;;22.20;47.60;;;;;;5004637;28;20937;-67
2023/12/07 07:41:23;;;;;;;18.03;17.10;;;22.20;47.60;;;;;;5004307;28;20480;-68
2023/12/07 07:43:50;;;;;;;17.60;16.90;;;22.20;47.60;;;;;;5000977;28;20502;-67
2023/12/07 07:46:17;;;;;;;19.50;18.80;;;22.20;47.50;;;;;;5000608;28;21044;-67
2023/12/07 07:48:44;;;;;;;18.70;18.00;;;22.20;47.50;;;;;;5002744;28;20511;-67
2023/12/07 07:51:11;;;;;;;17.57;16.97;;;22.20;47.50;;;;;;5004054;28;20470;-67
2023/12/07 07:53:39;;;;;;;17.97;17.33;;;22.20;47.40;;;;;;5002478;28;20945;-68
2023/12/07 07:56:06;;;;;;;17.93;17.23;;;22.30;47.50;;;;;;5016761;23;20506;-68
2023/12/07 07:58:33;;;;;;;17.60;17.00;;;22.30;47.50;;;;;;5010772;28;20494;-69
2023/12/07 08:01:00;;;;;;;16.87;16.30;;;22.30;47.50;;;;;;5011879;28;20470;-68
2023/12/07 08:03:27;;;;;;;18.03;17.43;;;22.30;47.40;;;;;;5011914;28;20469;-68
2023/12/07 08:05:54;;;;;;;18.10;17.50;;;22.30;47.40;;;;;;5003940;28;20470;-67
2023/12/07 08:08:21;;;;;;;18.70;18.00;;;22.30;47.40;;;;;;5011707;28;20500;-69
2023/12/07 08:10:49;;;;;;;17.67;16.97;;;22.30;47.40;;;;;;5011630;28;20519;-68
2023/12/07 08:13:16;;;;;;;18.10;17.17;;;22.30;47.30;;;;;;5011794;28;20480;-68
2023/12/07 08:15:43;;;;;;;18.13;17.43;;;22.30;47.30;;;;;;5011609;28;20478;-68
2023/12/07 08:18:10;;;;;;;17.30;16.80;;;22.30;47.30;;;;;;5011545;28;20505;-68
2023/12/07 08:20:37;;;;;;;17.87;17.20;;;22.40;47.30;;;;;;5011373;28;20438;-68
2023/12/07 08:23:04;;;;;;;17.80;17.20;;;22.30;47.20;;;;;;5011566;28;20524;-68
2023/12/07 08:25:32;;;;;;;18.80;18.10;;;22.40;47.30;;;;;;5012842;28;20484;-69
2023/12/07 08:28:00;;;;;;;17.57;16.93;;;22.30;47.70;;;;;;5015693;28;20464;-68
2023/12/07 08:30:27;;;;;;;17.27;16.77;;;22.30;47.20;;;;;;5015522;28;20937;-67
2023/12/07 08:32:54;;;;;;;17.87;17.17;;;22.40;47.20;;;;;;5007413;28;20488;-68
2023/12/07 08:35:21;;;;;;;17.67;17.17;;;22.40;47.20;;;;;;5015502;28;20478;-68
2023/12/07 08:37:48;;;;;;;18.20;17.60;;;22.40;47.20;;;;;;5015276;28;20461;-68
2023/12/07 08:40:15;;;;;;;17.80;17.20;;;22.40;47.20;;;;;;5015419;28;20444;-68
2023/12/07 08:42:46;;;;;;;17.70;17.10;;;22.40;47.10;;;;;;5015238;28;20450;-68
2023/12/07 08:45:14;;;;;;;17.30;16.80;;;22.40;47.10;;;;;;5015332;28;20473;-67
2023/12/07 08:47:42;;;;;;;17.53;16.93;;;22.40;47.10;;;;;;5015069;28;20468;-68
2023/12/07 08:50:09;;;;;;;17.77;17.20;;;22.40;47.00;;;;;;5015163;28;20509;-68
2023/12/07 08:52:36;;;;;;;16.50;16.00;;;22.40;47.00;;;;;;5015376;28;20496;-68
2023/12/07 08:55:04;;;;;;;16.60;16.10;;;22.40;47.00;;;;;;5015210;28;20470;-67
2023/12/07 08:57:31;;;;;;;17.97;17.37;;;22.40;47.00;;;;;;5014797;28;21003;-68
2023/12/07 08:59:58;;;;;;;17.30;16.77;;;22.40;47.00;;;;;;5015121;28;20937;-69
2023/12/07 09:02:26;;;;;;;17.30;16.80;;;22.40;46.90;;;;;;5015029;28;20529;-68
2023/12/07 09:04:53;;;;;;;17.90;17.40;;;22.40;46.90;;;;;;5014888;28;20465;-68
2023/12/07 09:07:20;;;;;;;16.53;16.03;;;22.50;47.00;;;;;;5014776;28;20912;-69
2023/12/07 09:09:47;;;;;;;17.10;16.60;;;22.50;47.00;;;;;;5014805;28;20904;-68
2023/12/07 09:12:15;;;;;;;17.50;16.90;;;22.50;47.00;;;;;;5014893;28;20941;-68
2023/12/07 09:14:42;;;;;;;18.17;17.57;;;22.50;46.90;;;;;;5014674;28;20500;-68
2023/12/07 09:17:09;;;;;;;16.33;15.83;;;22.50;46.90;;;;;;5014774;28;20981;-68
2023/12/07 09:19:37;;;;;;;16.80;16.30;;;22.50;46.90;;;;;;5014710;28;20497;-68
2023/12/07 09:22:05;;;;;;;16.90;16.40;;;22.50;46.90;;;;;;5014651;28;20469;-68
2023/12/07 09:24:31;;;;;;;17.60;16.90;;;22.50;46.90;;;;;;5014637;28;20482;-68
2023/12/07 09:26:59;;;;;;;16.90;16.40;;;22.50;46.90;;;;;;5014365;28;20504;-69
2023/12/07 09:29:26;;;;;;;16.60;16.10;;;22.50;46.80;;;;;;5014475;28;20566;-67
2023/12/07 09:31:53;;;;;;;16.30;15.77;;;22.50;46.80;;;;;;5014226;28;20445;-68
2023/12/07 09:34:20;;;;;;;17.33;16.83;;;22.50;46.80;;;;;;5014325;28;20485;-68
2023/12/07 09:36:48;;;;;;;16.40;15.90;;;22.50;46.80;;;;;;5014157;28;20474;-69
2023/12/07 09:39:16;;;;;;;16.50;16.00;;;22.50;46.80;;;;;;5014363;28;20470;-68
2023/12/07 09:41:46;;;;;;;17.30;16.80;;;22.50;46.70;;;;;;5014159;28;20457;-68
2023/12/07 09:44:13;;;;;;;18.00;17.40;;;22.60;46.80;;;;;;5014227;28;20475;-68
2023/12/07 09:46:40;;;;;;;17.50;17.00;;;22.50;46.70;;;;;;5014011;28;20493;-68
2023/12/07 09:49:07;;;;;;;16.70;16.20;;;22.60;46.80;;;;;;5014164;28;20472;-68
2023/12/07 09:51:35;;;;;;;17.37;16.87;;;22.50;46.70;;;;;;5013968;28;20469;-68
2023/12/07 09:54:05;;;;;;;17.30;16.70;;;22.60;46.80;;;;;;5014121;28;20450;-68
2023/12/07 09:56:32;;;;;;;17.70;17.10;;;22.50;46.70;;;;;;5013805;28;20482;-68
2023/12/07 09:58:58;;;;;;;17.13;16.63;;;22.50;46.70;;;;;;5006207;28;20510;-68
2023/12/07 10:01:30;;;;;;;17.47;16.87;;;22.60;46.70;;;;;;5013967;28;20870;-68
2023/12/07 10:04:18;;;;;;;17.10;16.60;;;22.60;46.70;;;;;;5013815;28;20445;-68
2023/12/07 10:06:45;;;;;;;17.40;16.90;;;22.60;46.70;;;;;;5013703;28;20777;-68
2023/12/07 10:09:14;;;;;;;18.07;17.40;;;22.60;46.70;;;;;;5013806;28;21117;-68
2023/12/07 10:11:43;;;;;;;17.10;16.50;;;22.60;46.70;;;;;;5013805;28;20442;-68
2023/12/07 10:14:10;;;;;;;18.07;17.50;;;22.60;46.70;;;;;;5013701;28;20488;-69
2023/12/07 10:16:37;;;;;;;16.50;16.00;;;22.60;46.70;;;;;;5013476;28;20625;-68
2023/12/07 10:19:14;;;;;;;17.97;17.47;;;22.60;46.70;;;;;;5013631;28;20446;-68
2023/12/07 10:21:41;;;;;;;17.13;16.63;;;22.60;46.70;;;;;;5013436;28;20473;-69
2023/12/07 10:24:09;;;;;;;18.30;17.60;;;22.60;46.70;;;;;;5013539;28;20481;-68
2023/12/07 10:26:39;;;;;;;18.00;17.40;;;22.60;46.70;;;;;;5013320;28;20504;-67
2023/12/07 10:29:06;;;;;;;18.50;17.80;;;22.60;46.60;;;;;;5013469;28;20450;-67
2023/12/07 10:31:33;;;;;;;17.93;17.30;;;22.60;46.60;;;;;;5013286;28;20517;-68
2023/12/07 10:34:01;;;;;;;16.63;16.13;;;22.60;46.60;;;;;;5005548;28;20446;-68
2023/12/07 10:36:28;;;;;;;18.10;17.60;;;22.60;46.60;;;;;;5013198;28;20493;-68
2023/12/07 10:38:55;;;;;;;18.00;17.50;;;22.60;46.60;;;;;;5013134;28;20473;-68
2023/12/07 10:41:23;;;;;;;18.50;17.90;;;22.70;46.70;;;;;;5013230;28;20478;-68
2023/12/07 10:43:53;;;;;;;16.93;16.43;;;22.60;46.60;;;;;;5013124;28;20969;-68
2023/12/07 10:46:22;;;;;;;17.03;16.53;;;22.60;46.50;;;;;;5013070;28;20466;-68
2023/12/07 10:48:52;;;;;;;17.87;17.17;;;22.60;46.50;;;;;;5012463;28;20896;-68
2023/12/07 10:51:30;;;;;;;16.53;16.03;;;22.60;46.50;;;;;;5012970;28;20505;-68
2023/12/07 10:53:58;;;;;;;17.37;16.80;;;22.70;46.60;;;;;;5012887;28;20438;-68
2023/12/07 10:56:33;;;;;;;17.03;16.43;;;22.70;46.60;;;;;;5012746;28;20857;-69
2023/12/07 10:59:02;;;;;;;17.70;17.20;;;22.70;46.60;;;;;;5004920;28;20476;-68
2023/12/07 11:01:30;;;;;;;17.47;16.87;;;22.70;46.60;;;;;;5012814;28;20477;-68
2023/12/07 11:03:59;;;;;;;18.30;17.70;;;22.70;46.60;;;;;;5012661;28;20449;-67
2023/12/07 11:06:26;;;;;;;18.03;17.43;;;22.70;46.60;;;;;;5012661;28;20498;-68
2023/12/07 11:08:59;;;;;;;17.60;17.00;;;22.70;46.60;;;;;;5012542;28;20529;-68
2023/12/07 11:11:32;;;;;;;17.50;16.90;;;22.70;46.60;;;;;;5012564;28;20754;-68
2023/12/07 11:14:05;;;;;;;17.60;17.00;;;22.70;46.50;;;;;;5012549;28;20797;-68
2023/12/07 11:16:32;;;;;;;18.53;17.93;;;22.70;46.60;;;;;;5012539;28;20512;-67
2023/12/07 11:19:00;;;;;;;17.50;17.00;;;22.70;46.50;;;;;;5012365;28;20941;-68
2023/12/07 11:21:27;;;;;;;16.90;16.40;;;22.70;46.50;;;;;;5012341;28;20438;-68
2023/12/07 11:23:54;;;;;;;18.47;17.87;;;22.70;46.50;;;;;;5012372;28;20485;-68
2023/12/07 11:26:23;;;;;;;17.90;17.40;;;22.70;46.50;;;;;;5012311;28;20987;-68
2023/12/07 11:28:50;;;;;;;17.70;17.13;;;22.70;46.40;;;;;;5012206;28;20474;-68
2023/12/07 11:31:18;;;;;;;17.77;17.23;;;22.80;46.50;;;;;;5012072;28;20565;-68
2023/12/07 11:33:47;;;;;;;18.70;18.10;;;22.80;46.50;;;;;;5012175;28;20877;-67
2023/12/07 11:36:15;;;;;;;17.37;16.77;;;22.80;46.50;;;;;;5012117;28;20473;-67
2023/12/07 11:39:12;;;;;;;19.00;18.40;;;22.80;46.50;;;;;;5012102;28;20533;-67
2023/12/07 11:41:44;;;;;;;16.80;16.30;;;22.80;46.50;;;;;;5011947;28;20448;-67
2023/12/07 11:44:11;;;;;;;17.80;17.20;;;22.80;46.50;;;;;;5012215;28;20465;-68
2023/12/07 11:46:40;;;;;;;17.57;17.07;;;22.80;46.50;;;;;;5011829;28;20511;-68
2023/12/07 11:49:10;;;;;;;17.30;16.80;;;22.80;46.50;;;;;;5012067;28;20466;-68
2023/12/07 11:51:37;;;;;;;18.20;17.70;;;22.80;46.50;;;;;;5011714;28;20477;-68
2023/12/07 11:54:04;;;;;;;17.83;17.30;;;22.80;46.40;;;;;;5012021;28;20438;-68
2023/12/07 11:56:31;;;;;;;16.97;16.47;;;22.80;46.40;;;;;;5011757;28;20482;-68
2023/12/07 11:58:59;;;;;;;17.80;17.30;;;22.80;46.40;;;;;;5011693;28;20469;-68
2023/12/07 12:01:27;;;;;;;18.27;17.67;;;22.80;46.40;;;;;;5011035;28;20453;-67
2023/12/07 12:03:55;;;;;;;19.30;18.60;;;22.80;46.40;;;;;;5011797;28;20453;-68
2023/12/07 12:06:26;;;;;;;19.10;18.50;;;22.80;46.50;;;;;;5011680;28;20468;-68
2023/12/07 12:08:53;;;;;;;19.00;18.40;;;22.80;46.40;;;;;;5011714;28;20545;-68
2023/12/07 12:11:20;;;;;;;18.27;17.67;;;22.90;46.50;;;;;;5011543;28;21009;-68
2023/12/07 12:13:49;;;;;;;19.13;18.53;;;22.90;46.50;;;;;;5011678;28;20848;-68
2023/12/07 12:16:16;;;;;;;19.57;18.93;;;22.90;46.40;;;;;;5011623;28;20450;-67
2023/12/07 12:18:43;;;;;;;18.83;18.23;;;22.90;46.40;;;;;;5011508;28;20970;-67
2023/12/07 12:21:11;;;;;;;18.00;17.40;;;22.90;46.40;;;;;;5011666;28;20528;-67
2023/12/07 12:23:39;;;;;;;19.27;18.67;;;22.90;46.40;;;;;;5011590;28;20485;-67
2023/12/07 12:26:08;;;;;;;18.67;18.07;;;22.90;46.40;;;;;;5011415;28;20446;-67
2023/12/07 12:28:40;;;;;;;18.03;17.53;;;22.90;46.40;;;;;;5011604;28;20820;-67
2023/12/07 12:31:07;;;;;;;19.50;18.90;;;22.90;46.70;;;;;;5004147;28;20488;-67